createdAt,value
2019-04-25T00:01:03.285Z,1.07
2019-04-25T00:03:33.172Z,1.53
2019-04-25T00:06:02.345Z,1.20
2019-04-25T00:08:31.196Z,1.50
2019-04-25T00:10:59.726Z,1.57
2019-04-25T00:13:28.034Z,1.60
2019-04-25T00:15:56.089Z,2.00
2019-04-25T00:18:24.150Z,2.03
2019-04-25T00:20:53.843Z,1.40
2019-04-25T00:23:22.774Z,1.77
2019-04-25T00:26:11.310Z,1.70
2019-04-25T00:28:42.000Z,2.17
2019-04-25T00:31:09.533Z,1.70
2019-04-25T00:33:37.565Z,1.70
2019-04-25T00:36:05.637Z,2.20
2019-04-25T00:38:33.681Z,1.97
2019-04-25T00:41:01.859Z,2.03
2019-04-25T00:43:31.468Z,1.90
2019-04-25T00:45:59.581Z,2.70
2019-04-25T00:48:27.670Z,3.17
2019-04-25T00:50:56.586Z,3.13
2019-04-25T00:53:24.630Z,3.83
2019-04-25T00:55:53.835Z,3.73
2019-04-25T00:58:23.614Z,3.83
2019-04-25T01:01:09.658Z,4.03
2019-04-25T01:03:37.785Z,4.20
2019-04-25T01:06:05.832Z,4.53
2019-04-25T01:08:33.871Z,3.17
2019-04-25T01:11:01.922Z,3.73
2019-04-25T01:13:29.974Z,3.17
2019-04-25T01:15:58.010Z,3.20
2019-04-25T01:18:27.407Z,2.80
2019-04-25T01:20:55.525Z,3.10
2019-04-25T01:23:23.745Z,3.10
2019-04-25T01:25:53.736Z,3.70
2019-04-25T01:28:22.206Z,3.50
2019-04-25T01:30:50.240Z,3.60
2019-04-25T01:33:18.365Z,4.20
2019-04-25T01:35:48.475Z,3.80
2019-04-25T01:38:35.837Z,3.87
2019-04-25T01:41:20.681Z,3.53
2019-04-25T01:43:53.187Z,3.60
2019-04-25T01:46:20.805Z,4.37
2019-04-25T01:48:48.850Z,3.60
2019-04-25T01:51:17.670Z,3.93
2019-04-25T01:53:45.777Z,3.53
2019-04-25T01:56:13.818Z,3.40
2019-04-25T01:58:43.629Z,3.30
2019-04-25T02:01:11.651Z,3.67
2019-04-25T02:03:39.686Z,3.97
2019-04-25T02:06:07.854Z,3.17
2019-04-25T02:08:35.891Z,4.20
2019-04-25T02:11:17.693Z,3.60
2019-04-25T02:13:45.738Z,3.67
2019-04-25T02:16:14.241Z,3.40
2019-04-25T02:18:43.555Z,3.63
2019-04-25T02:21:13.616Z,3.47
2019-04-25T02:23:42.138Z,4.07
2019-04-25T02:26:15.918Z,4.10
2019-04-25T02:28:40.989Z,3.93
2019-04-25T02:31:09.044Z,3.70
2019-04-25T02:33:37.098Z,3.70
2019-04-25T02:36:08.673Z,3.97
2019-04-25T02:38:34.899Z,4.17
2019-04-25T02:41:06.870Z,4.10
2019-04-25T02:43:34.901Z,3.53
2019-04-25T02:46:19.371Z,4.00
2019-04-25T02:49:09.594Z,3.43
2019-04-25T02:51:45.792Z,3.73
2019-04-25T02:54:14.116Z,3.20
2019-04-25T02:56:42.259Z,3.07
2019-04-25T02:59:10.330Z,3.20
2019-04-25T03:01:38.386Z,3.13
2019-04-25T03:04:10.708Z,3.13
2019-04-25T03:06:36.977Z,2.93
2019-04-25T03:09:06.430Z,3.30
2019-04-25T03:11:35.463Z,2.80
2019-04-25T03:14:06.614Z,2.20
2019-04-25T03:16:34.717Z,2.77
2019-04-25T03:19:20.655Z,2.97
2019-04-25T03:21:50.332Z,2.73
2019-04-25T03:24:18.411Z,2.20
2019-04-25T03:26:46.534Z,2.27
2019-04-25T03:29:14.573Z,2.07
2019-04-25T03:31:44.989Z,2.07
2019-04-25T03:34:17.219Z,1.87
2019-04-25T03:36:43.429Z,2.10
2019-04-25T03:39:14.406Z,2.70
2019-04-25T03:41:41.766Z,2.30
2019-04-25T03:44:10.079Z,2.47
2019-04-25T03:46:38.126Z,2.33
2019-04-25T03:49:07.559Z,2.30
2019-04-25T03:51:35.681Z,2.40
2019-04-25T03:54:04.879Z,2.40
2019-04-25T03:56:33.650Z,2.30
2019-04-25T03:59:02.689Z,2.40
2019-04-25T04:01:31.455Z,2.93
2019-04-25T04:03:59.515Z,2.63
2019-04-25T04:06:27.546Z,2.70
2019-04-25T04:08:55.591Z,2.53
2019-04-25T04:11:23.874Z,2.83
2019-04-25T04:13:51.915Z,2.50
2019-04-25T04:16:23.153Z,2.10
2019-04-25T04:18:54.059Z,2.60
2019-04-25T04:21:40.198Z,2.50
2019-04-25T04:24:09.904Z,2.57
2019-04-25T04:26:38.009Z,2.70
2019-04-25T04:29:06.757Z,2.33
2019-04-25T04:31:37.354Z,2.30
2019-04-25T04:34:05.398Z,2.67
2019-04-25T04:36:34.318Z,2.20
2019-04-25T04:39:03.859Z,2.17
2019-04-25T04:41:31.994Z,1.83
2019-04-25T04:44:00.033Z,2.30
2019-04-25T04:46:28.104Z,2.00
2019-04-25T04:48:56.135Z,1.80
2019-04-25T04:51:24.229Z,2.10
2019-04-25T04:53:53.720Z,2.10
2019-04-25T04:56:25.423Z,1.77
2019-04-25T04:58:53.807Z,2.13
2019-04-25T05:01:24.723Z,1.93
2019-04-25T05:04:00.426Z,2.10
2019-04-25T05:06:30.126Z,1.73
2019-04-25T05:09:08.571Z,2.33
2019-04-25T05:11:36.658Z,1.90
2019-04-25T05:14:04.694Z,1.80
2019-04-25T05:16:33.195Z,1.90
2019-04-25T05:19:01.386Z,1.70
2019-04-25T05:21:29.450Z,1.50
2019-04-25T05:23:57.491Z,1.90
2019-04-25T05:26:25.553Z,1.97
2019-04-25T05:28:54.870Z,1.83
2019-04-25T05:31:25.652Z,1.80
2019-04-25T05:33:53.861Z,1.30
2019-04-25T05:36:21.898Z,1.30
2019-04-25T05:38:49.939Z,1.33
2019-04-25T05:41:28.274Z,1.50
2019-04-25T05:43:56.315Z,1.77
2019-04-25T05:46:25.390Z,1.63
2019-04-25T05:48:54.334Z,1.40
2019-04-25T05:51:23.964Z,1.90
2019-04-25T05:53:52.219Z,1.50
2019-04-25T05:56:20.790Z,1.30
2019-04-25T05:58:50.817Z,1.63
2019-04-25T06:01:18.888Z,1.57
2019-04-25T06:03:47.071Z,1.20
2019-04-25T06:06:15.116Z,1.60
2019-04-25T06:08:44.798Z,1.30
2019-04-25T06:11:14.494Z,1.30
2019-04-25T06:14:00.343Z,1.60
2019-04-25T06:16:30.129Z,1.30
2019-04-25T06:19:13.014Z,1.50
2019-04-25T06:21:29.629Z,1.30
2019-04-25T06:23:59.326Z,1.40
2019-04-25T06:26:35.397Z,1.40
2019-04-25T06:28:59.714Z,1.87
2019-04-25T06:31:29.188Z,1.80
2019-04-25T06:33:56.678Z,1.80
2019-04-25T06:36:25.382Z,2.03
2019-04-25T06:38:54.175Z,1.60
2019-04-25T06:41:22.304Z,1.70
2019-04-25T06:43:51.978Z,1.50
2019-04-25T06:46:22.879Z,1.77
2019-04-25T06:48:53.442Z,1.40
2019-04-25T06:51:25.582Z,1.70
2019-04-25T06:53:53.484Z,1.90
2019-04-25T06:56:22.505Z,1.70
2019-04-25T06:58:51.278Z,1.43
2019-04-25T07:01:19.810Z,1.60
2019-04-25T07:03:47.851Z,1.43
2019-04-25T07:06:15.893Z,1.77
2019-04-25T07:08:44.727Z,1.30
2019-04-25T07:11:14.009Z,1.37
2019-04-25T07:13:43.707Z,1.30
2019-04-25T07:16:13.374Z,1.30
2019-04-25T07:18:43.595Z,1.90
2019-04-25T07:21:11.699Z,1.50
2019-04-25T07:23:40.407Z,1.20
2019-04-25T07:26:10.182Z,1.10
2019-04-25T07:28:44.024Z,2.10
2019-04-25T07:31:23.357Z,1.40
2019-04-25T07:34:13.213Z,2.23
2019-04-25T07:36:41.390Z,2.00
2019-04-25T07:39:10.628Z,2.27
2019-04-25T07:41:38.925Z,2.80
2019-04-25T07:44:07.889Z,1.70
2019-04-25T07:46:39.578Z,1.30
2019-04-25T07:49:05.691Z,1.43
2019-04-25T07:51:34.625Z,1.77
2019-04-25T07:54:04.502Z,1.20
2019-04-25T07:56:34.288Z,1.40
2019-04-25T07:59:03.832Z,1.83
2019-04-25T08:01:33.513Z,1.30
2019-04-25T08:04:03.496Z,1.60
2019-04-25T08:06:33.369Z,1.20
2019-04-25T08:09:01.622Z,1.33
2019-04-25T08:11:29.868Z,1.40
2019-04-25T08:14:08.514Z,1.33
2019-04-25T08:16:38.195Z,1.33
2019-04-25T08:19:06.409Z,1.60
2019-04-25T08:21:36.387Z,1.40
2019-04-25T08:24:04.822Z,1.40
2019-04-25T08:26:34.972Z,1.50
2019-04-25T08:29:03.672Z,1.40
2019-04-25T08:31:33.878Z,1.60
2019-04-25T08:34:03.429Z,1.63
2019-04-25T08:36:31.297Z,1.30
2019-04-25T08:38:59.322Z,1.40
2019-04-25T08:41:27.366Z,1.20
2019-04-25T08:43:55.439Z,1.50
2019-04-25T08:46:25.250Z,1.23
2019-04-25T08:49:06.214Z,1.47
2019-04-25T08:51:38.557Z,0.90
2019-04-25T08:54:08.337Z,1.03
2019-04-25T08:56:37.762Z,1.03
2019-04-25T08:59:08.149Z,1.30
2019-04-25T09:01:40.641Z,1.07
2019-04-25T09:04:13.349Z,1.00
2019-04-25T09:06:42.303Z,0.80
2019-04-25T09:09:10.329Z,1.00
2019-04-25T09:11:40.007Z,0.70
2019-04-25T09:14:08.190Z,1.13
2019-04-25T09:16:36.708Z,1.23
2019-04-25T09:19:05.135Z,0.90
2019-04-25T09:21:34.178Z,1.27
2019-04-25T09:24:03.370Z,0.80
2019-04-25T09:26:31.394Z,0.50
2019-04-25T09:28:59.442Z,0.60
2019-04-25T09:31:27.579Z,0.73
2019-04-25T09:33:56.278Z,0.70
2019-04-25T09:36:24.386Z,0.53
2019-04-25T09:38:54.100Z,0.70
2019-04-25T09:41:23.618Z,0.53
2019-04-25T09:43:54.953Z,0.90
2019-04-25T09:46:28.542Z,0.77
2019-04-25T09:49:07.223Z,0.93
2019-04-25T09:51:37.617Z,0.90
2019-04-25T09:54:07.386Z,0.70
2019-04-25T09:56:37.084Z,1.63
2019-04-25T09:59:09.830Z,0.63
2019-04-25T10:01:38.110Z,1.07
2019-04-25T10:04:06.146Z,0.60
2019-04-25T10:06:36.540Z,0.53
2019-04-25T10:09:07.366Z,0.50
2019-04-25T10:11:35.405Z,0.70
2019-04-25T10:14:21.532Z,0.60
2019-04-25T10:16:49.567Z,0.60
2019-04-25T10:19:17.609Z,0.90
2019-04-25T10:21:45.674Z,2.27
2019-04-25T10:24:13.725Z,1.17
2019-04-25T10:26:41.835Z,4.00
2019-04-25T10:29:09.893Z,1.87
2019-04-25T10:31:37.938Z,1.60
2019-04-25T10:34:05.983Z,1.20
2019-04-25T10:36:34.047Z,0.70
2019-04-25T10:39:08.642Z,1.20
2019-04-25T10:41:33.691Z,0.83
2019-04-25T10:44:03.321Z,1.00
2019-04-25T10:46:31.398Z,0.87
2019-04-25T10:48:59.438Z,1.53
2019-04-25T10:51:27.510Z,0.80
2019-04-25T10:53:55.551Z,1.00
2019-04-25T10:56:24.302Z,1.13
2019-04-25T10:58:54.777Z,0.90
2019-04-25T11:01:22.195Z,0.70
2019-04-25T11:04:00.922Z,0.90
2019-04-25T11:06:28.958Z,1.40
2019-04-25T11:08:57.008Z,0.90
2019-04-25T11:11:26.291Z,2.97
2019-04-25T11:13:55.646Z,1.20
2019-04-25T11:16:24.212Z,0.80
2019-04-25T11:18:53.012Z,0.83
2019-04-25T11:21:22.080Z,0.50
2019-04-25T11:23:50.178Z,0.70
2019-04-25T11:26:18.345Z,0.77
2019-04-25T11:28:46.447Z,0.70
2019-04-25T11:31:16.125Z,0.70
2019-04-25T11:33:44.187Z,0.70
2019-04-25T11:36:13.353Z,1.00
2019-04-25T11:38:58.303Z,1.10
2019-04-25T11:41:26.348Z,0.80
2019-04-25T11:43:55.381Z,1.20
2019-04-25T11:46:24.265Z,0.80
2019-04-25T11:48:52.690Z,0.70
2019-04-25T11:51:23.861Z,1.03
2019-04-25T11:53:52.086Z,0.93
2019-04-25T11:56:20.202Z,0.83
2019-04-25T11:58:48.966Z,0.70
2019-04-25T12:01:18.218Z,1.00
2019-04-25T12:03:47.926Z,1.37
2019-04-25T12:06:16.554Z,1.10
2019-04-25T12:08:46.572Z,0.83
2019-04-25T12:11:14.407Z,0.93
2019-04-25T12:13:44.786Z,6.10
2019-04-25T12:16:14.286Z,1.20
2019-04-25T12:18:45.203Z,0.67
2019-04-25T12:21:13.517Z,1.40
2019-04-25T12:23:41.662Z,0.83
2019-04-25T12:26:09.703Z,0.67
2019-04-25T12:28:37.806Z,0.50
2019-04-25T12:31:05.894Z,0.43
2019-04-25T12:33:33.938Z,0.70
2019-04-25T12:36:01.982Z,0.70
2019-04-25T12:38:30.111Z,0.90
2019-04-25T12:40:58.150Z,0.97
2019-04-25T12:43:27.836Z,0.90
2019-04-25T12:45:58.292Z,0.70
2019-04-25T12:48:26.341Z,0.60
2019-04-25T12:50:55.449Z,0.60
2019-04-25T12:53:23.902Z,0.90
2019-04-25T12:55:53.448Z,0.60
2019-04-25T12:58:23.471Z,0.90
2019-04-25T13:00:54.994Z,0.73
2019-04-25T13:03:21.551Z,0.70
2019-04-25T13:05:50.606Z,0.60
2019-04-25T13:08:18.726Z,0.70
2019-04-25T13:10:46.762Z,0.80
2019-04-25T13:13:16.154Z,1.03
2019-04-25T13:15:46.167Z,0.97
2019-04-25T13:18:14.242Z,0.47
2019-04-25T13:20:42.300Z,0.40
2019-04-25T13:23:10.490Z,0.70
2019-04-25T13:25:38.535Z,0.60
2019-04-25T13:28:20.150Z,0.63
2019-04-25T13:31:11.959Z,0.50
2019-04-25T13:33:37.328Z,0.50
2019-04-25T13:36:13.154Z,0.50
2019-04-25T13:38:41.210Z,0.70
2019-04-25T13:41:09.250Z,0.63
2019-04-25T13:43:37.286Z,0.47
2019-04-25T13:46:05.346Z,0.47
2019-04-25T13:48:34.669Z,0.70
2019-04-25T13:51:04.109Z,1.83
2019-04-25T13:53:33.552Z,0.73
2019-04-25T13:56:03.462Z,0.70
2019-04-25T13:58:32.140Z,0.80
2019-04-25T14:01:12.312Z,0.70
2019-04-25T14:03:30.986Z,1.20
2019-04-25T14:05:59.027Z,0.70
2019-04-25T14:08:27.089Z,0.63
2019-04-25T14:10:55.130Z,0.60
2019-04-25T14:13:25.260Z,0.63
2019-04-25T14:16:06.719Z,0.40
2019-04-25T14:18:53.754Z,0.57
2019-04-25T14:21:23.796Z,0.50
2019-04-25T14:23:51.638Z,0.53
2019-04-25T14:26:20.633Z,0.40
2019-04-25T14:28:49.618Z,0.70
2019-04-25T14:31:35.174Z,0.40
2019-04-25T14:33:51.589Z,0.50
2019-04-25T14:36:18.849Z,0.50
2019-04-25T14:38:46.909Z,0.30
2019-04-25T14:41:14.998Z,0.50
2019-04-25T14:43:43.070Z,0.60
2019-04-25T14:46:11.106Z,0.53
2019-04-25T14:48:39.148Z,0.60
2019-04-25T14:51:07.278Z,0.60
2019-04-25T14:53:35.322Z,0.70
2019-04-25T14:56:10.725Z,0.70
2019-04-25T14:58:40.183Z,0.53
2019-04-25T15:01:10.331Z,0.30
2019-04-25T15:03:38.378Z,0.50
2019-04-25T15:06:06.421Z,0.40
2019-04-25T15:08:34.477Z,0.60
2019-04-25T15:11:02.531Z,0.53
2019-04-25T15:13:30.570Z,0.53
2019-04-25T15:15:58.620Z,0.57
2019-04-25T15:18:26.766Z,0.67
2019-04-25T15:20:57.199Z,0.40
2019-04-25T15:23:25.463Z,0.50
2019-04-25T15:25:53.570Z,0.50
2019-04-25T15:28:21.614Z,0.50
2019-04-25T15:30:49.686Z,0.83
2019-04-25T15:33:18.114Z,0.97
2019-04-25T15:35:53.279Z,0.50
2019-04-25T15:38:31.830Z,0.53
2019-04-25T15:41:06.962Z,0.77
2019-04-25T15:43:36.678Z,0.73
2019-04-25T15:46:09.299Z,0.60
2019-04-25T15:48:37.507Z,0.40
2019-04-25T15:51:05.612Z,0.40
2019-04-25T15:53:33.666Z,0.70
2019-04-25T15:56:01.943Z,0.60
2019-04-25T15:58:29.981Z,0.57
2019-04-25T16:00:58.094Z,0.50
2019-04-25T16:03:26.133Z,0.43
2019-04-25T16:05:54.310Z,0.30
2019-04-25T16:08:22.342Z,0.40
2019-04-25T16:10:50.387Z,0.50
2019-04-25T16:13:18.445Z,1.00
2019-04-25T16:15:46.494Z,0.40
2019-04-25T16:18:14.534Z,0.50
2019-04-25T16:20:43.094Z,0.40
2019-04-25T16:23:12.325Z,0.50
2019-04-25T16:25:41.222Z,1.60
2019-04-25T16:28:09.309Z,0.90
2019-04-25T16:30:37.350Z,0.70
2019-04-25T16:33:05.766Z,1.80
2019-04-25T16:35:33.820Z,5.10
2019-04-25T16:38:01.866Z,1.77
2019-04-25T16:40:29.954Z,17.27
2019-04-25T16:43:00.178Z,7.37
2019-04-25T16:45:28.961Z,15.17
2019-04-25T16:47:58.292Z,11.67
2019-04-25T16:50:27.157Z,2.80
2019-04-25T16:52:55.163Z,0.83
2019-04-25T16:55:23.198Z,0.70
2019-04-25T16:57:51.377Z,0.50
2019-04-25T17:00:38.349Z,0.40
2019-04-25T17:03:06.542Z,0.60
2019-04-25T17:05:35.227Z,0.77
2019-04-25T17:08:03.306Z,0.50
2019-04-25T17:10:32.710Z,0.70
2019-04-25T17:13:00.923Z,0.50
2019-04-25T17:15:30.657Z,0.47
2019-04-25T17:18:03.084Z,0.30
2019-04-25T17:20:32.758Z,0.80
2019-04-25T17:23:00.980Z,0.90
2019-04-25T17:25:30.126Z,0.60
2019-04-25T17:27:59.218Z,0.70
2019-04-25T17:30:28.900Z,0.60
2019-04-25T17:33:13.303Z,0.70
2019-04-25T17:35:45.406Z,0.60
2019-04-25T17:38:21.534Z,0.60
2019-04-25T17:40:49.651Z,0.50
2019-04-25T17:43:17.685Z,0.60
2019-04-25T17:45:45.786Z,0.70
2019-04-25T17:48:13.834Z,0.67
2019-04-25T17:50:42.634Z,0.77
2019-04-25T17:53:10.700Z,0.80
2019-04-25T17:55:39.566Z,0.50
2019-04-25T17:58:07.926Z,0.50
2019-04-25T18:00:37.829Z,0.73
2019-04-25T18:03:07.615Z,0.60
2019-04-25T18:05:36.414Z,1.07
2019-04-25T18:08:04.685Z,2.63
2019-04-25T18:10:34.163Z,1.53
2019-04-25T18:13:02.783Z,0.67
2019-04-25T18:15:32.578Z,0.80
2019-04-25T18:18:02.277Z,0.70
2019-04-25T18:20:31.999Z,0.80
2019-04-25T18:23:04.652Z,0.80
2019-04-25T18:25:52.355Z,1.13
2019-04-25T18:28:39.468Z,1.03
2019-04-25T18:31:08.749Z,0.90
2019-04-25T18:33:37.283Z,1.17
2019-04-25T18:36:07.098Z,0.90
2019-04-25T18:38:42.634Z,1.30
2019-04-25T18:41:12.414Z,0.60
2019-04-25T18:43:51.236Z,0.43
2019-04-25T18:46:21.019Z,0.53
2019-04-25T18:48:49.058Z,0.73
2019-04-25T18:51:17.118Z,0.40
2019-04-25T18:53:47.365Z,0.50
2019-04-25T18:56:17.443Z,0.70
2019-04-25T18:58:48.198Z,0.43
2019-04-25T19:01:20.803Z,0.33
2019-04-25T19:03:56.279Z,0.40
2019-04-25T19:06:26.025Z,0.80
2019-04-25T19:08:54.130Z,0.63
2019-04-25T19:11:22.378Z,0.60
2019-04-25T19:13:50.457Z,0.50
2019-04-25T19:16:18.497Z,0.40
2019-04-25T19:18:47.812Z,0.60
2019-04-25T19:21:16.087Z,0.60
2019-04-25T19:23:44.133Z,1.50
2019-04-25T19:26:12.253Z,0.33
2019-04-25T19:28:41.282Z,0.33
2019-04-25T19:31:10.491Z,1.17
2019-04-25T19:33:39.260Z,0.40
2019-04-25T19:36:08.378Z,0.37
2019-04-25T19:38:36.418Z,0.37
2019-04-25T19:41:12.070Z,0.60
2019-04-25T19:43:47.422Z,0.70
2019-04-25T19:46:15.462Z,0.40
2019-04-25T19:48:43.558Z,0.30
2019-04-25T19:51:11.603Z,0.10
2019-04-25T19:53:40.689Z,0.30
2019-04-25T19:56:09.430Z,0.20
2019-04-25T19:58:37.479Z,0.17
2019-04-25T20:01:05.526Z,0.20
2019-04-25T20:03:47.680Z,0.40
2019-04-25T20:06:25.608Z,0.13
2019-04-25T20:08:55.379Z,0.20
2019-04-25T20:11:30.767Z,0.50
2019-04-25T20:13:58.858Z,0.30
2019-04-25T20:16:28.526Z,0.40
2019-04-25T20:18:56.561Z,0.20
2019-04-25T20:21:24.617Z,0.33
2019-04-25T20:23:52.662Z,0.37
2019-04-25T20:26:20.718Z,0.10
2019-04-25T20:28:48.789Z,0.20
2019-04-25T20:31:16.833Z,0.20
2019-04-25T20:33:45.588Z,0.33
2019-04-25T20:36:18.009Z,0.30
2019-04-25T20:38:43.647Z,0.20
2019-04-25T20:41:11.872Z,0.20
2019-04-25T20:43:39.982Z,0.20
2019-04-25T20:46:08.046Z,0.43
2019-04-25T20:48:36.087Z,0.67
2019-04-25T20:51:04.162Z,0.40
2019-04-25T20:53:32.207Z,0.20
2019-04-25T20:56:00.264Z,0.10
2019-04-25T20:58:28.309Z,0.30
2019-04-25T21:00:58.868Z,0.10
2019-04-25T21:03:27.003Z,0.20
2019-04-25T21:05:57.217Z,0.20
2019-04-25T21:08:25.314Z,0.10
2019-04-25T21:10:53.736Z,0.30
2019-04-25T21:13:23.594Z,0.30
2019-04-25T21:16:02.730Z,0.30
2019-04-25T21:18:35.170Z,0.27
2019-04-25T21:21:03.211Z,0.30
2019-04-25T21:23:31.314Z,0.30
2019-04-25T21:25:59.386Z,0.20
2019-04-25T21:28:27.499Z,0.30
2019-04-25T21:30:55.537Z,0.20
2019-04-25T21:33:23.689Z,0.13
2019-04-25T21:35:53.273Z,0.30
2019-04-25T21:38:21.667Z,0.13
2019-04-25T21:40:54.033Z,0.23
2019-04-25T21:43:27.230Z,0.20
2019-04-25T21:45:56.012Z,0.40
2019-04-25T21:48:24.464Z,0.30
2019-04-25T21:50:53.606Z,0.20
2019-04-25T21:53:21.996Z,0.60
2019-04-25T21:55:50.231Z,0.33
2019-04-25T21:58:18.413Z,0.37
2019-04-25T22:00:51.288Z,0.33
2019-04-25T22:03:21.254Z,0.30
2019-04-25T22:05:49.466Z,0.40
2019-04-25T22:08:17.541Z,0.20
2019-04-25T22:10:46.087Z,0.20
2019-04-25T22:13:17.194Z,0.30
2019-04-25T22:15:43.886Z,0.40
2019-04-25T22:18:12.202Z,0.40
2019-04-25T22:20:40.250Z,0.70
2019-04-25T22:23:08.638Z,0.30
2019-04-25T22:25:36.982Z,0.50
2019-04-25T22:28:05.356Z,0.40
2019-04-25T22:30:33.672Z,0.60
2019-04-25T22:33:03.744Z,0.40
2019-04-25T22:35:39.668Z,0.40
2019-04-25T22:38:09.502Z,0.30
2019-04-25T22:40:37.539Z,0.30
2019-04-25T22:43:06.225Z,0.70
2019-04-25T22:45:34.553Z,0.20
2019-04-25T22:48:02.902Z,0.30
2019-04-25T22:50:31.118Z,0.40
2019-04-25T22:52:59.615Z,0.30
2019-04-25T22:55:27.950Z,0.40
2019-04-25T22:57:55.996Z,0.50
2019-04-25T23:00:25.701Z,0.30
2019-04-25T23:03:05.253Z,0.40
2019-04-25T23:05:40.861Z,0.50
2019-04-25T23:08:10.051Z,0.40
2019-04-25T23:10:38.081Z,0.40
2019-04-25T23:13:06.762Z,0.43
2019-04-25T23:15:34.834Z,0.80
2019-04-25T23:18:04.308Z,0.63
2019-04-25T23:20:32.826Z,0.43
2019-04-25T23:23:00.898Z,0.60
2019-04-25T23:25:30.574Z,0.53
2019-04-25T23:28:09.806Z,0.73
2019-04-25T23:30:39.799Z,0.50
2019-04-25T23:33:08.522Z,0.50
2019-04-25T23:35:38.297Z,0.40
2019-04-25T23:38:07.092Z,0.30
2019-04-25T23:40:35.761Z,0.50
2019-04-25T23:43:04.037Z,0.50
2019-04-25T23:45:32.090Z,0.43
2019-04-25T23:48:00.171Z,0.60
2019-04-25T23:50:29.378Z,0.50
2019-04-25T23:52:57.425Z,0.70
2019-04-25T23:55:25.553Z,0.50
2019-04-25T23:57:53.611Z,0.80
